sensor_id;sensor_type;location;lat;lon;timestamp;pressure;altitude;pressure_sealevel;temperature;humidity
15884;BME280;8040;50.254;10.960;2023-04-01T00:01:03;96601.78;;;11.16;72.68
15884;BME280;8040;50.254;10.960;2023-04-01T00:03:29;96597.72;;;11.10;72.01
15884;BME280;8040;50.254;10.960;2023-04-01T00:05:56;96595.66;;;11.07;72.76
15884;BME280;8040;50.254;10.960;2023-04-01T00:08:22;96596.91;;;11.10;72.40
15884;BME280;8040;50.254;10.960;2023-04-01T00:10:47;96601.19;;;11.11;72.55
15884;BME280;8040;50.254;10.960;2023-04-01T00:13:13;96595.66;;;11.07;72.85
15884;BME280;8040;50.254;10.960;2023-04-01T00:15:38;96588.88;;;11.13;72.22
15884;BME280;8040;50.254;10.960;2023-04-01T00:18:03;96589.69;;;11.14;72.40
15884;BME280;8040;50.254;10.960;2023-04-01T00:20:29;96597.13;;;11.17;72.54
15884;BME280;8040;50.254;10.960;2023-04-01T00:22:55;96593.75;;;11.20;72.02
15884;BME280;8040;50.254;10.960;2023-04-01T00:25:21;96600.97;;;11.16;72.29
15884;BME280;8040;50.254;10.960;2023-04-01T00:27:46;96602.09;;;11.15;72.17
15884;BME280;8040;50.254;10.960;2023-04-01T00:30:12;96597.13;;;11.17;72.05
15884;BME280;8040;50.254;10.960;2023-04-01T00:32:37;96594.16;;;11.22;72.36
15884;BME280;8040;50.254;10.960;2023-04-01T00:35:03;96600.50;;;11.26;72.04
15884;BME280;8040;50.254;10.960;2023-04-01T00:37:28;96596.66;;;11.27;72.05
15884;BME280;8040;50.254;10.960;2023-04-01T00:39:53;96599.38;;;11.27;71.53
15884;BME280;8040;50.254;10.960;2023-04-01T00:42:19;96600.84;;;11.24;71.63
15884;BME280;8040;50.254;10.960;2023-04-01T00:44:54;96593.50;;;11.25;72.04
15884;BME280;8040;50.254;10.960;2023-04-01T00:47:19;96594.13;;;11.34;72.18
15884;BME280;8040;50.254;10.960;2023-04-01T00:49:46;96589.06;;;11.32;71.74
15884;BME280;8040;50.254;10.960;2023-04-01T00:52:14;96598.44;;;11.35;71.56
15884;BME280;8040;50.254;10.960;2023-04-01T00:54:41;96591.75;;;11.32;71.96
15884;BME280;8040;50.254;10.960;2023-04-01T01:00:06;96582.38;;;11.30;73.08
15884;BME280;8040;50.254;10.960;2023-04-01T01:02:34;96589.41;;;11.31;72.30
15884;BME280;8040;50.254;10.960;2023-04-01T01:05:00;96577.22;;;11.25;72.56
15884;BME280;8040;50.254;10.960;2023-04-01T01:12:38;96586.84;;;11.22;72.79
15884;BME280;8040;50.254;10.960;2023-04-01T01:15:14;96581.53;;;11.14;73.29
15884;BME280;8040;50.254;10.960;2023-04-01T01:25:52;96572.50;;;11.10;73.27
15884;BME280;8040;50.254;10.960;2023-04-01T01:30:54;96565.94;;;11.11;73.09
15884;BME280;8040;50.254;10.960;2023-04-01T01:33:32;96571.59;;;11.18;73.48
15884;BME280;8040;50.254;10.960;2023-04-01T01:36:01;96568.63;;;11.11;72.67
15884;BME280;8040;50.254;10.960;2023-04-01T01:38:31;96565.94;;;11.11;72.65
15884;BME280;8040;50.254;10.960;2023-04-01T01:40:57;96564.34;;;11.10;72.68
15884;BME280;8040;50.254;10.960;2023-04-01T01:43:25;96564.81;;;11.12;72.97
15884;BME280;8040;50.254;10.960;2023-04-01T01:45:52;96560.50;;;11.11;72.67
15884;BME280;8040;50.254;10.960;2023-04-01T01:48:19;96550.13;;;11.13;72.77
15884;BME280;8040;50.254;10.960;2023-04-01T01:50:45;96558.25;;;11.13;72.29
15884;BME280;8040;50.254;10.960;2023-04-01T01:53:12;96555.31;;;11.18;72.54
15884;BME280;8040;50.254;10.960;2023-04-01T01:55:39;96553.69;;;11.17;72.40
15884;BME280;8040;50.254;10.960;2023-04-01T01:58:12;96559.13;;;11.17;72.29
15884;BME280;8040;50.254;10.960;2023-04-01T02:00:38;96557.22;;;11.17;71.20
15884;BME280;8040;50.254;10.960;2023-04-01T02:03:05;96556.22;;;11.10;70.96
15884;BME280;8040;50.254;10.960;2023-04-01T02:05:31;96546.59;;;11.12;70.85
15884;BME280;8040;50.254;10.960;2023-04-01T02:08:10;96547.94;;;11.18;70.52
15884;BME280;8040;50.254;10.960;2023-04-01T02:10:39;96546.03;;;11.19;70.20
15884;BME280;8040;50.254;10.960;2023-04-01T02:13:07;96552.13;;;11.16;70.16
15884;BME280;8040;50.254;10.960;2023-04-01T02:15:37;96540.03;;;11.13;70.25
15884;BME280;8040;50.254;10.960;2023-04-01T02:18:03;96537.22;;;11.10;69.93
15884;BME280;8040;50.254;10.960;2023-04-01T02:20:29;96537.22;;;11.10;69.85
15884;BME280;8040;50.254;10.960;2023-04-01T02:22:55;96543.88;;;11.12;70.47
15884;BME280;8040;50.254;10.960;2023-04-01T02:25:22;96540.84;;;11.14;70.34
15884;BME280;8040;50.254;10.960;2023-04-01T02:28:27;96507.22;;;10.91;69.55
15884;BME280;8040;50.254;10.960;2023-04-01T02:30:54;96546.25;;;11.14;70.11
15884;BME280;8040;50.254;10.960;2023-04-01T02:33:21;96544.31;;;11.14;69.80
15884;BME280;8040;50.254;10.960;2023-04-01T02:35:46;96544.69;;;11.13;69.37
15884;BME280;8040;50.254;10.960;2023-04-01T02:38:12;96552.81;;;11.13;69.25
15884;BME280;8040;50.254;10.960;2023-04-01T02:40:43;96539.94;;;11.10;69.45
15884;BME280;8040;50.254;10.960;2023-04-01T02:43:09;96554.31;;;11.10;69.16
15884;BME280;8040;50.254;10.960;2023-04-01T02:45:34;96553.97;;;11.12;69.07
15884;BME280;8040;50.254;10.960;2023-04-01T02:48:00;96545.25;;;11.06;69.04
15884;BME280;8040;50.254;10.960;2023-04-01T02:50:25;96559.84;;;11.14;69.34
15884;BME280;8040;50.254;10.960;2023-04-01T02:52:50;96551.47;;;11.19;69.34
15884;BME280;8040;50.254;10.960;2023-04-01T02:55:15;96556.88;;;11.19;68.94
15884;BME280;8040;50.254;10.960;2023-04-01T02:57:41;96561.41;;;11.15;69.15
15884;BME280;8040;50.254;10.960;2023-04-01T03:00:06;96558.47;;;11.20;69.08
15884;BME280;8040;50.254;10.960;2023-04-01T03:02:36;96564.22;;;11.18;69.10
15884;BME280;8040;50.254;10.960;2023-04-01T03:05:01;96553.47;;;11.22;69.39
15884;BME280;8040;50.254;10.960;2023-04-01T03:10:02;96554.28;;;11.22;68.83
15884;BME280;8040;50.254;10.960;2023-04-01T03:12:27;96558.03;;;11.18;69.06
15884;BME280;8040;50.254;10.960;2023-04-01T03:14:52;96557.78;;;11.11;68.83
15884;BME280;8040;50.254;10.960;2023-04-01T03:17:18;96560.50;;;11.11;68.86
15884;BME280;8040;50.254;10.960;2023-04-01T03:19:43;96560.78;;;11.06;68.71
15884;BME280;8040;50.254;10.960;2023-04-01T03:22:10;96558.38;;;11.04;69.10
15884;BME280;8040;50.254;10.960;2023-04-01T03:24:36;96558.06;;;11.06;69.35
15884;BME280;8040;50.254;10.960;2023-04-01T03:27:01;96551.03;;;11.05;69.53
15884;BME280;8040;50.254;10.960;2023-04-01T03:29:26;96553.19;;;10.99;69.70
15884;BME280;8040;50.254;10.960;2023-04-01T03:31:52;96560.41;;;11.07;69.45
15884;BME280;8040;50.254;10.960;2023-04-01T03:34:17;96559.16;;;11.05;69.44
15884;BME280;8040;50.254;10.960;2023-04-01T03:36:42;96571.84;;;11.01;69.53
15884;BME280;8040;50.254;10.960;2023-04-01T03:39:07;96562.25;;;11.03;69.56
15884;BME280;8040;50.254;10.960;2023-04-01T03:41:35;96569.56;;;11.03;69.33
15884;BME280;8040;50.254;10.960;2023-04-01T03:44:00;96576.47;;;11.00;69.71
15884;BME280;8040;50.254;10.960;2023-04-01T03:46:25;96575.00;;;11.03;69.44
15884;BME280;8040;50.254;10.960;2023-04-01T03:48:51;96572.53;;;10.98;69.38
15884;BME280;8040;50.254;10.960;2023-04-01T03:51:16;96578.97;;;10.93;69.69
15884;BME280;8040;50.254;10.960;2023-04-01T03:53:41;96574.78;;;10.96;70.29
15884;BME280;8040;50.254;10.960;2023-04-01T03:56:07;96583.16;;;10.91;70.39
15884;BME280;8040;50.254;10.960;2023-04-01T03:58:33;96580.88;;;10.93;70.51
15884;BME280;8040;50.254;10.960;2023-04-01T04:00:58;96584.06;;;10.95;70.79
15884;BME280;8040;50.254;10.960;2023-04-01T04:03:23;96576.25;;;10.93;70.56
15884;BME280;8040;50.254;10.960;2023-04-01T04:05:49;96571.16;;;10.92;70.22
15884;BME280;8040;50.254;10.960;2023-04-01T04:08:14;96572.41;;;10.94;70.42
15884;BME280;8040;50.254;10.960;2023-04-01T04:10:40;96569.16;;;10.89;70.17
15884;BME280;8040;50.254;10.960;2023-04-01T04:13:06;96579.09;;;10.85;70.54
15884;BME280;8040;50.254;10.960;2023-04-01T04:15:31;96577.84;;;10.82;69.98
15884;BME280;8040;50.254;10.960;2023-04-01T04:17:57;96582.25;;;10.87;71.00
15884;BME280;8040;50.254;10.960;2023-04-01T04:20:22;96582.94;;;10.84;70.45
15884;BME280;8040;50.254;10.960;2023-04-01T04:22:47;96587.22;;;10.85;70.40
15884;BME280;8040;50.254;10.960;2023-04-01T04:25:12;96593.09;;;10.87;69.76
15884;BME280;8040;50.254;10.960;2023-04-01T04:27:38;96594.72;;;10.88;70.20
15884;BME280;8040;50.254;10.960;2023-04-01T04:30:04;96583.06;;;10.87;69.93
15884;BME280;8040;50.254;10.960;2023-04-01T04:32:30;96593.00;;;10.83;70.44
15884;BME280;8040;50.254;10.960;2023-04-01T04:34:55;96591.75;;;10.81;70.50
15884;BME280;8040;50.254;10.960;2023-04-01T04:37:21;96596.41;;;10.80;70.56
15884;BME280;8040;50.254;10.960;2023-04-01T04:39:46;96588.03;;;10.85;69.67
15884;BME280;8040;50.254;10.960;2023-04-01T04:42:11;96598.09;;;10.85;69.23
15884;BME280;8040;50.254;10.960;2023-04-01T04:44:36;96600.25;;;10.91;69.01
15884;BME280;8040;50.254;10.960;2023-04-01T04:47:02;96600.78;;;10.85;69.04
15884;BME280;8040;50.254;10.960;2023-04-01T04:49:27;96599.09;;;10.92;69.54
15884;BME280;8040;50.254;10.960;2023-04-01T04:51:52;96601.72;;;10.89;69.22
15884;BME280;8040;50.254;10.960;2023-04-01T04:54:18;96598.09;;;10.85;69.14
15884;BME280;8040;50.254;10.960;2023-04-01T04:56:43;96597.75;;;10.86;69.25
15884;BME280;8040;50.254;10.960;2023-04-01T04:59:08;96602.38;;;10.86;69.01
15884;BME280;8040;50.254;10.960;2023-04-01T05:01:34;96603.63;;;10.88;69.39
15884;BME280;8040;50.254;10.960;2023-04-01T05:04:00;96592.88;;;10.92;69.63
15884;BME280;8040;50.254;10.960;2023-04-01T05:06:25;96592.00;;;10.88;69.23
15884;BME280;8040;50.254;10.960;2023-04-01T05:08:54;96601.81;;;10.92;69.23
15884;BME280;8040;50.254;10.960;2023-04-01T05:11:20;96599.53;;;10.94;69.28
15884;BME280;8040;50.254;10.960;2023-04-01T05:13:46;96598.97;;;11.01;69.11
15884;BME280;8040;50.254;10.960;2023-04-01T05:16:16;96597.84;;;11.02;68.69
15884;BME280;8040;50.254;10.960;2023-04-01T05:18:41;96604.84;;;11.03;68.88
15884;BME280;8040;50.254;10.960;2023-04-01T05:21:08;96600.22;;;11.03;68.27
15884;BME280;8040;50.254;10.960;2023-04-01T05:23:33;96596.03;;;11.06;68.47
15884;BME280;8040;50.254;10.960;2023-04-01T05:26:02;96596.03;;;11.06;68.09
15884;BME280;8040;50.254;10.960;2023-04-01T05:28:27;96593.06;;;11.11;68.38
15884;BME280;8040;50.254;10.960;2023-04-01T05:30:52;96594.41;;;11.17;67.80
15884;BME280;8040;50.254;10.960;2023-04-01T05:33:18;96597.00;;;11.25;67.75
15884;BME280;8040;50.254;10.960;2023-04-01T05:35:43;96601.63;;;11.37;67.80
15884;BME280;8040;50.254;10.960;2023-04-01T05:38:08;96595.81;;;11.38;67.71
15884;BME280;8040;50.254;10.960;2023-04-01T05:40:34;96593.75;;;11.47;67.32
15884;BME280;8040;50.254;10.960;2023-04-01T05:42:59;96602.00;;;11.51;66.78
15884;BME280;8040;50.254;10.960;2023-04-01T05:45:25;96595.19;;;11.57;66.73
15884;BME280;8040;50.254;10.960;2023-04-01T05:47:51;96593.75;;;11.59;66.12
15884;BME280;8040;50.254;10.960;2023-04-01T05:50:16;96594.38;;;11.68;66.16
15884;BME280;8040;50.254;10.960;2023-04-01T05:52:41;96598.78;;;11.73;65.84
15884;BME280;8040;50.254;10.960;2023-04-01T05:55:07;96594.22;;;11.77;65.46
15884;BME280;8040;50.254;10.960;2023-04-01T05:57:32;96598.19;;;11.79;65.46
15884;BME280;8040;50.254;10.960;2023-04-01T05:59:58;96609.13;;;11.83;65.24
15884;BME280;8040;50.254;10.960;2023-04-01T06:02:23;96593.75;;;11.87;65.22
15884;BME280;8040;50.254;10.960;2023-04-01T06:04:49;96600.66;;;11.84;64.81
15884;BME280;8040;50.254;10.960;2023-04-01T06:07:15;96593.75;;;11.87;64.75
15884;BME280;8040;50.254;10.960;2023-04-01T06:09:41;96595.75;;;11.90;64.67
15884;BME280;8040;50.254;10.960;2023-04-01T06:19:51;96591.81;;;12.03;64.32
15884;BME280;8040;50.254;10.960;2023-04-01T06:22:22;96601.22;;;12.05;64.10
15884;BME280;8040;50.254;10.960;2023-04-01T06:24:54;96592.09;;;11.98;64.23
15884;BME280;8040;50.254;10.960;2023-04-01T06:32:31;96605.06;;;12.04;64.23
15884;BME280;8040;50.254;10.960;2023-04-01T06:42:54;96613.00;;;12.40;63.73
15884;BME280;8040;50.254;10.960;2023-04-01T06:45:28;96611.84;;;12.41;63.08
15884;BME280;8040;50.254;10.960;2023-04-01T06:50:26;96611.50;;;12.43;62.34
15884;BME280;8040;50.254;10.960;2023-04-01T06:52:58;96613.81;;;12.41;61.89
15884;BME280;8040;50.254;10.960;2023-04-01T06:57:58;96612.84;;;12.49;62.20
15884;BME280;8040;50.254;10.960;2023-04-01T07:00:46;96606.25;;;12.50;62.40
15884;BME280;8040;50.254;10.960;2023-04-01T07:03:19;96607.13;;;12.54;62.41
15884;BME280;8040;50.254;10.960;2023-04-01T07:05:46;96608.09;;;12.46;61.70
15884;BME280;8040;50.254;10.960;2023-04-01T07:08:13;96615.97;;;12.51;61.52
15884;BME280;8040;50.254;10.960;2023-04-01T07:13:10;96602.84;;;12.68;61.23
15884;BME280;8040;50.254;10.960;2023-04-01T07:15:42;96619.50;;;12.82;61.58
15884;BME280;8040;50.254;10.960;2023-04-01T07:18:13;96612.22;;;12.86;61.07
15884;BME280;8040;50.254;10.960;2023-04-01T07:20:41;96601.41;;;12.90;59.96
15884;BME280;8040;50.254;10.960;2023-04-01T07:23:10;96619.06;;;12.96;60.03
15884;BME280;8040;50.254;10.960;2023-04-01T07:25:42;96612.81;;;12.95;59.88
15884;BME280;8040;50.254;10.960;2023-04-01T07:28:12;96611.31;;;12.98;59.93
15884;BME280;8040;50.254;10.960;2023-04-01T07:43:47;96616.25;;;12.77;59.78
15884;BME280;8040;50.254;10.960;2023-04-01T07:46:26;96622.22;;;12.67;59.81
15884;BME280;8040;50.254;10.960;2023-04-01T07:51:29;96618.00;;;12.69;59.92
15884;BME280;8040;50.254;10.960;2023-04-01T08:04:15;96629.16;;;12.64;60.09
15884;BME280;8040;50.254;10.960;2023-04-01T08:06:48;96637.66;;;12.63;59.82
15884;BME280;8040;50.254;10.960;2023-04-01T08:09:25;96628.09;;;12.53;60.65
15884;BME280;8040;50.254;10.960;2023-04-01T08:14:46;96639.22;;;12.64;60.27
15884;BME280;8040;50.254;10.960;2023-04-01T08:20:59;96645.56;;;12.68;60.07
15884;BME280;8040;50.254;10.960;2023-04-01T08:23:00;96635.66;;;12.75;60.42
15884;BME280;8040;50.254;10.960;2023-04-01T08:25:30;96648.53;;;12.78;60.69
15884;BME280;8040;50.254;10.960;2023-04-01T08:30:38;96643.47;;;12.77;60.49
15884;BME280;8040;50.254;10.960;2023-04-01T08:33:21;96649.69;;;12.77;60.44
15884;BME280;8040;50.254;10.960;2023-04-01T08:48:48;96649.00;;;12.80;61.67
15884;BME280;8040;50.254;10.960;2023-04-01T08:51:26;96644.69;;;12.79;62.06
15884;BME280;8040;50.254;10.960;2023-04-01T08:54:16;96644.94;;;12.74;62.24
15884;BME280;8040;50.254;10.960;2023-04-01T08:56:50;96642.22;;;12.74;62.50
15884;BME280;8040;50.254;10.960;2023-04-01T09:01:51;96650.81;;;12.76;63.42
15884;BME280;8040;50.254;10.960;2023-04-01T09:15:20;96654.44;;;12.65;66.88
15884;BME280;8040;50.254;10.960;2023-04-01T09:18:05;96663.63;;;12.60;68.02
15884;BME280;8040;50.254;10.960;2023-04-01T09:20:53;96657.66;;;12.55;69.27
15884;BME280;8040;50.254;10.960;2023-04-01T09:26:03;96658.09;;;12.57;70.76
15884;BME280;8040;50.254;10.960;2023-04-01T09:36:00;96657.84;;;12.62;71.13
15884;BME280;8040;50.254;10.960;2023-04-01T09:43:51;96654.69;;;12.60;72.10
15884;BME280;8040;50.254;10.960;2023-04-01T09:46:27;96664.59;;;12.52;72.54
15884;BME280;8040;50.254;10.960;2023-04-01T10:10:17;96663.44;;;12.38;71.11
15884;BME280;8040;50.254;10.960;2023-04-01T10:28:26;96650.56;;;12.97;67.49
15884;BME280;8040;50.254;10.960;2023-04-01T10:38:35;96645.16;;;13.31;65.28
15884;BME280;8040;50.254;10.960;2023-04-01T10:41:25;96648.28;;;13.33;65.43
15884;BME280;8040;50.254;10.960;2023-04-01T10:46:32;96655.84;;;13.40;64.92
15884;BME280;8040;50.254;10.960;2023-04-01T10:51:48;96653.47;;;13.38;63.57
15884;BME280;8040;50.254;10.960;2023-04-01T11:26:33;96650.63;;;13.16;68.89
15884;BME280;8040;50.254;10.960;2023-04-01T11:34:00;96653.81;;;13.02;68.43
15884;BME280;8040;50.254;10.960;2023-04-01T11:40:03;96644.22;;;12.93;69.75
15884;BME280;8040;50.254;10.960;2023-04-01T11:53:10;96652.56;;;13.00;72.13
15884;BME280;8040;50.254;10.960;2023-04-01T11:55:47;96657.81;;;12.93;72.53
15884;BME280;8040;50.254;10.960;2023-04-01T12:04:06;96659.41;;;12.78;73.98
15884;BME280;8040;50.254;10.960;2023-04-01T12:26:55;96657.00;;;13.39;74.28
15884;BME280;8040;50.254;10.960;2023-04-01T12:34:48;96668.03;;;13.46;73.21
15884;BME280;8040;50.254;10.960;2023-04-01T12:37:33;96668.63;;;13.55;72.44
15884;BME280;8040;50.254;10.960;2023-04-01T12:56:47;96667.31;;;14.21;68.80
15884;BME280;8040;50.254;10.960;2023-04-01T13:11:34;96662.81;;;14.13;67.63
15884;BME280;8040;50.254;10.960;2023-04-01T13:16:35;96670.59;;;13.92;69.38
15884;BME280;8040;50.254;10.960;2023-04-01T13:24:33;96682.13;;;13.86;70.49
15884;BME280;8040;50.254;10.960;2023-04-01T13:27:06;96676.19;;;13.80;71.31
15884;BME280;8040;50.254;10.960;2023-04-01T13:29:37;96678.84;;;13.77;71.12
15884;BME280;8040;50.254;10.960;2023-04-01T13:34:45;96688.00;;;13.69;72.32
15884;BME280;8040;50.254;10.960;2023-04-01T13:37:20;96682.56;;;13.69;72.13
15884;BME280;8040;50.254;10.960;2023-04-01T13:40:04;96680.25;;;13.71;72.70
15884;BME280;8040;50.254;10.960;2023-04-01T13:42:40;96687.81;;;13.77;72.52
15884;BME280;8040;50.254;10.960;2023-04-01T13:45:21;96683.06;;;13.74;71.62
15884;BME280;8040;50.254;10.960;2023-04-01T13:50:34;96676.25;;;13.84;73.11
15884;BME280;8040;50.254;10.960;2023-04-01T13:55:55;96683.63;;;13.64;72.93
15884;BME280;8040;50.254;10.960;2023-04-01T14:11:17;96690.28;;;13.32;76.11
15884;BME280;8040;50.254;10.960;2023-04-01T14:24:51;96696.22;;;13.03;79.08
15884;BME280;8040;50.254;10.960;2023-04-01T14:35:14;96709.31;;;12.98;79.87
15884;BME280;8040;50.254;10.960;2023-04-01T14:45:36;96715.69;;;12.90;82.12
15884;BME280;8040;50.254;10.960;2023-04-01T14:48:37;96711.03;;;12.90;82.12
15884;BME280;8040;50.254;10.960;2023-04-01T14:51:08;96712.09;;;12.86;82.50
15884;BME280;8040;50.254;10.960;2023-04-01T14:53:36;96714.38;;;12.84;83.05
15884;BME280;8040;50.254;10.960;2023-04-01T14:56:03;96715.59;;;12.86;83.60
15884;BME280;8040;50.254;10.960;2023-04-01T14:58:45;96719.81;;;12.84;82.82
15884;BME280;8040;50.254;10.960;2023-04-01T15:03:58;96719.81;;;12.84;83.58
15884;BME280;8040;50.254;10.960;2023-04-01T15:09:06;96720.41;;;12.77;83.60
15884;BME280;8040;50.254;10.960;2023-04-01T15:11:37;96722.63;;;12.72;84.22
15884;BME280;8040;50.254;10.960;2023-04-01T15:14:10;96722.69;;;12.60;83.89
15884;BME280;8040;50.254;10.960;2023-04-01T15:19:18;96727.97;;;12.68;84.94
15884;BME280;8040;50.254;10.960;2023-04-01T15:21:56;96725.59;;;12.67;84.75
15884;BME280;8040;50.254;10.960;2023-04-01T15:29:38;96730.31;;;12.70;84.40
15884;BME280;8040;50.254;10.960;2023-04-01T15:37:42;96740.50;;;12.73;83.90
15884;BME280;8040;50.254;10.960;2023-04-01T15:42:54;96743.72;;;12.63;83.35
15884;BME280;8040;50.254;10.960;2023-04-01T15:45:26;96743.06;;;12.66;84.68
15884;BME280;8040;50.254;10.960;2023-04-01T15:50:51;96751.81;;;12.59;85.92
15884;BME280;8040;50.254;10.960;2023-04-01T15:53:21;96754.09;;;12.57;86.34
15884;BME280;8040;50.254;10.960;2023-04-01T16:06:37;96770.28;;;12.38;85.34
15884;BME280;8040;50.254;10.960;2023-04-01T16:09:09;96768.53;;;12.46;85.64
15884;BME280;8040;50.254;10.960;2023-04-01T16:14:14;96771.69;;;12.48;86.96
15884;BME280;8040;50.254;10.960;2023-04-01T16:16:47;96771.00;;;12.51;87.31
15884;BME280;8040;50.254;10.960;2023-04-01T16:22:05;96777.31;;;12.55;87.49
15884;BME280;8040;50.254;10.960;2023-04-01T16:37:55;96780.06;;;12.55;87.20
15884;BME280;8040;50.254;10.960;2023-04-01T16:40:36;96788.22;;;12.55;87.46
15884;BME280;8040;50.254;10.960;2023-04-01T16:45:54;96798.66;;;12.53;86.92
15884;BME280;8040;50.254;10.960;2023-04-01T16:48:25;96794.44;;;12.55;87.44
15884;BME280;8040;50.254;10.960;2023-04-01T16:50:59;96802.94;;;12.54;87.45
15884;BME280;8040;50.254;10.960;2023-04-01T16:53:30;96805.66;;;12.54;87.04
15884;BME280;8040;50.254;10.960;2023-04-01T16:59:02;96800.47;;;12.49;86.92
15884;BME280;8040;50.254;10.960;2023-04-01T17:04:17;96813.44;;;12.40;86.21
15884;BME280;8040;50.254;10.960;2023-04-01T17:06:53;96812.97;;;12.38;86.56
15884;BME280;8040;50.254;10.960;2023-04-01T17:09:32;96811.63;;;12.32;86.42
15884;BME280;8040;50.254;10.960;2023-04-01T17:15:05;96817.44;;;12.18;87.21
15884;BME280;8040;50.254;10.960;2023-04-01T17:17:45;96822.78;;;12.15;86.37
15884;BME280;8040;50.254;10.960;2023-04-01T17:23:14;96825.50;;;12.15;86.65
15884;BME280;8040;50.254;10.960;2023-04-01T17:31:12;96833.66;;;12.15;87.90
15884;BME280;8040;50.254;10.960;2023-04-01T17:34:06;96831.41;;;12.17;88.38
15884;BME280;8040;50.254;10.960;2023-04-01T17:37:21;96843.75;;;12.14;88.49
15884;BME280;8040;50.254;10.960;2023-04-01T17:42:13;96856.22;;;12.03;88.80
15884;BME280;8040;50.254;10.960;2023-04-01T17:47:21;96867.41;;;12.02;89.25
15884;BME280;8040;50.254;10.960;2023-04-01T17:50:09;96866.28;;;12.03;89.81
15884;BME280;8040;50.254;10.960;2023-04-01T17:52:42;96875.34;;;12.07;90.12
15884;BME280;8040;50.254;10.960;2023-04-01T18:03:38;96878.06;;;11.95;91.07
15884;BME280;8040;50.254;10.960;2023-04-01T18:14:00;96894.28;;;11.79;90.99
15884;BME280;8040;50.254;10.960;2023-04-01T18:26:38;96912.84;;;11.77;90.60
15884;BME280;8040;50.254;10.960;2023-04-01T18:35:08;96927.66;;;11.80;91.18
15884;BME280;8040;50.254;10.960;2023-04-01T18:37:42;96926.22;;;11.82;90.95
15884;BME280;8040;50.254;10.960;2023-04-01T18:40:21;96926.66;;;11.84;91.05
15884;BME280;8040;50.254;10.960;2023-04-01T18:45:51;96935.47;;;11.81;91.19
15884;BME280;8040;50.254;10.960;2023-04-01T18:56:34;96945.09;;;11.79;90.66
15884;BME280;8040;50.254;10.960;2023-04-01T18:58:59;96958.69;;;11.79;90.15
15884;BME280;8040;50.254;10.960;2023-04-01T19:04:10;96966.38;;;11.77;90.22
15884;BME280;8040;50.254;10.960;2023-04-01T19:06:51;96963.31;;;11.78;90.03
15884;BME280;8040;50.254;10.960;2023-04-01T19:09:22;96971.59;;;11.82;90.07
15884;BME280;8040;50.254;10.960;2023-04-01T19:12:33;96967.94;;;11.78;90.99
15884;BME280;8040;50.254;10.960;2023-04-01T19:20:08;96972.72;;;11.81;90.27
15884;BME280;8040;50.254;10.960;2023-04-01T19:22:55;96974.50;;;11.77;90.15
15884;BME280;8040;50.254;10.960;2023-04-01T19:27:53;96978.38;;;11.76;90.20
15884;BME280;8040;50.254;10.960;2023-04-01T19:30:33;96984.94;;;11.75;90.51
15884;BME280;8040;50.254;10.960;2023-04-01T19:33:07;96990.69;;;11.73;90.97
15884;BME280;8040;50.254;10.960;2023-04-01T19:35:42;96985.25;;;11.73;90.46
15884;BME280;8040;50.254;10.960;2023-04-01T19:40:55;96989.78;;;11.69;90.87
15884;BME280;8040;50.254;10.960;2023-04-01T19:45:54;96991.50;;;11.74;90.68
15884;BME280;8040;50.254;10.960;2023-04-01T19:48:44;96996.13;;;11.73;90.75
15884;BME280;8040;50.254;10.960;2023-04-01T19:51:25;96994.22;;;11.74;91.01
15884;BME280;8040;50.254;10.960;2023-04-01T19:53:56;96991.50;;;11.74;91.49
15884;BME280;8040;50.254;10.960;2023-04-01T19:56:24;96999.88;;;11.69;90.88
15884;BME280;8040;50.254;10.960;2023-04-01T20:01:58;97007.81;;;11.74;90.96
15884;BME280;8040;50.254;10.960;2023-04-01T20:14:47;97023.84;;;11.67;90.96
15884;BME280;8040;50.254;10.960;2023-04-01T20:17:21;97031.19;;;11.66;91.22
15884;BME280;8040;50.254;10.960;2023-04-01T20:19:58;97034.03;;;11.70;91.50
15884;BME280;8040;50.254;10.960;2023-04-01T20:22:29;97039.81;;;11.68;91.36
15884;BME280;8040;50.254;10.960;2023-04-01T20:25:01;97038.22;;;11.67;91.67
15884;BME280;8040;50.254;10.960;2023-04-01T20:27:35;97040.94;;;11.67;91.98
15884;BME280;8040;50.254;10.960;2023-04-01T20:32:55;97056.19;;;11.60;91.24
15884;BME280;8040;50.254;10.960;2023-04-01T20:38:11;97053.38;;;11.48;90.57
15884;BME280;8040;50.254;10.960;2023-04-01T20:40:51;97057.91;;;11.44;89.75
15884;BME280;8040;50.254;10.960;2023-04-01T20:46:20;97066.38;;;11.42;90.58
15884;BME280;8040;50.254;10.960;2023-04-01T20:51:26;97070.22;;;11.41;91.03
15884;BME280;8040;50.254;10.960;2023-04-01T20:56:26;97067.97;;;11.43;90.66
15884;BME280;8040;50.254;10.960;2023-04-01T21:03:50;97074.59;;;11.34;89.84
15884;BME280;8040;50.254;10.960;2023-04-01T21:06:27;97080.72;;;11.31;90.13
15884;BME280;8040;50.254;10.960;2023-04-01T21:09:06;97080.34;;;11.32;90.04
15884;BME280;8040;50.254;10.960;2023-04-01T21:16:30;97090.50;;;11.23;89.31
15884;BME280;8040;50.254;10.960;2023-04-01T21:19:16;97093.09;;;11.20;90.01
15884;BME280;8040;50.254;10.960;2023-04-01T21:27:13;97103.31;;;11.14;89.39
15884;BME280;8040;50.254;10.960;2023-04-01T21:30:04;97104.47;;;11.13;89.19
15884;BME280;8040;50.254;10.960;2023-04-01T21:35:23;97112.72;;;11.17;89.34
15884;BME280;8040;50.254;10.960;2023-04-01T21:37:54;97111.81;;;11.13;88.99
15884;BME280;8040;50.254;10.960;2023-04-01T21:40:42;97122.19;;;11.11;90.08
15884;BME280;8040;50.254;10.960;2023-04-01T21:45:56;97129.06;;;11.08;89.32
15884;BME280;8040;50.254;10.960;2023-04-01T21:51:13;97132.59;;;11.09;89.58
15884;BME280;8040;50.254;10.960;2023-04-01T21:56:37;97143.56;;;11.12;90.93
15884;BME280;8040;50.254;10.960;2023-04-01T21:59:15;97148.22;;;11.12;91.32
15884;BME280;8040;50.254;10.960;2023-04-01T22:09:38;97143.44;;;11.09;90.76
15884;BME280;8040;50.254;10.960;2023-04-01T22:12:39;97146.97;;;11.09;90.56
15884;BME280;8040;50.254;10.960;2023-04-01T22:25:25;97168.13;;;11.16;90.76
15884;BME280;8040;50.254;10.960;2023-04-01T22:27:57;97163.38;;;11.13;90.41
15884;BME280;8040;50.254;10.960;2023-04-01T22:30:27;97171.53;;;11.13;90.28